Main page
METAR-TAF:

METAR-TAF

Airports :

Skyros Island National Airport

Skyros, Greece

latitude: 38-58-03N, longitude: 024-29-14E, elevation: 13 m

METAR: missing

Time: 23:43 (21:43 UTC)

Forecast

The report was made 1 hour and 43 minutes ago, at 20:00 UTC
Forecast valid from 15 at 21 UTC to 16 at 06 UTC
Wind 12 kt from the South with gusts up to 22 kt
Visibility 10 km or more
Few clouds at a height of 1000 ft
Scattered clouds at a height of 2000 ft
Temporary
from 15 at 21 UTC to 16 at 06 UTC
Visibility: 6000 m
Few clouds at a height of 1000 ft
Broken clouds at a height of 2000 ft
rain
Probability 40% :
Temporary
from 15 at 21 UTC to 16 at 06 UTC
Visibility: 4000 m
Few clouds at a height of 1000 ft
Few clouds at a height of 1800 ft, Cumulonimbus.
Broken clouds at a height of 2000 ft
thunderstorm, rain

TAF: LGSY 152000Z 1521/1606 19012G22KT 9999 FEW010 SCT020 TEMPO 1521/1606 6000 RA FEW010 BKN020 PROB40 TEMPO 1521/1606 4000 TSRA FEW010 FEW018CB BKN020

Weather observations and forecasts of more than 4000 airports (METAR and TAF reports).

The available stations are represented by yellow and red dots on the map.

Hover mouse over dot to see the name of the station.

Then click to see weather observations and forecasts.

To change the map : click on the green buttons with a black cross to zoom in, on the green button with a dash to zoom out, or on the green arrows for adjacent maps.


METAR-TAF: